Patrocinio, Brazil
Current Conditions -  °F | °C
As of 12:00 AM on Sunday 23 Nov 2014 (Local Time) from SBUL Reporting Station
Light Rain Light Rain  
Wind Chill: 66°   Ceiling: Unl
Heat Index: 66°   Visibility: 6mi
Dew Point: 64°   Wind: 5mph
Humidity: 94%   Direction: 50°NE
Pressure: 30.06"   Gusts: NA
Location:  18.93°S, 47°W
Report Text: SBUL 230200Z 05004KT 9999 -RA FEW001 SCT080 19/18 Q1018 RERA
Loading
Personal Weather Stations






























Interactive Weather Map New forecast layout! Learn more

10-Day Weather Forecast

Advertisements
Track Severe Weather on mobile